Altus, OK

3:54 AM CDT on May 28, 2017 (GMT -0500)
Altus Municipal

Weather History for KAXS - February, 2013

Change the Weather History Date:

Sunday, February 17, 2013

  Actual Average (KLTS) Record (KLTS)
Temperature  
Mean Temperature 52 °F -  
Max Temperature 71 °F 55 °F 71 °F (2016)
Min Temperature 32 °F 33 °F 25 °F (2015)
Degree Days  
Heating Degree Days 14    
Growing Degree Days 2 (Base 50)    
Moisture  
Dew Point 28 °F    
Average Humidity 47    
Maximum Humidity 87    
Minimum Humidity 15    
Precipitation  
Precipitation 0.00 in - - ()
Sea Level Pressure  
Sea Level Pressure 29.89 in    
Wind  
Wind Speed 13 mph (SSE)    
Max Wind Speed 25 mph    
Max Gust Speed 33 mph    
Visibility 10 miles    
Events      
Averages and records for this station are not official NWS values.
T = Trace of Precipitation, MM = Missing Value Source: NWS Daily Summary

Daily Weather History Graph

Daily Weather History Graph

Search for Another Location

Airport or City:

Trip Planner

Search our weather history database for the weather conditions in past years. The results will help you decide how hot, cold, wet, or windy it might be!

Date:

Astronomy

Feb. 17, 2013 Rise Set
Actual Time 7:20 AM CST 6:22 PM CST
Civil Twilight 6:54 AM CST 6:48 PM CST
Nautical Twilight 6:25 AM CST 7:17 PM CST
Astronomical Twilight 5:56 AM CST 7:47 PM CST
Moon 11:33 AM CST (2/17) 1:01 AM CST (2/17)
Length of Visible Light 11h 53m
Length of Day
11h 02m
Waxing Crescent, 49% of the Moon is Illuminated
Feb 17
Waxing Crescent
Feb 17
First Quarter
Feb 25
Full
Mar 4
Last Quarter
Mar 11
New

Hourly Weather History & Observations

Time (CST) Temp. Windchill Dew Point Humidity Pressure Visibility Wind Dir Wind Speed Gust Speed Precip Events Conditions
12:15 AM 37.4 °F 30.8 °F 30.2 °F 75% 30.09 in 10.0 mi East 9.2 mph - N/A   Clear
12:35 AM 37.4 °F 30.8 °F 30.2 °F 75% 30.08 in 10.0 mi ESE 9.2 mph - N/A   Clear
12:55 AM 37.4 °F 30.8 °F 30.2 °F 75% 30.08 in 10.0 mi East 9.2 mph - N/A   Clear
1:15 AM 37.4 °F 30.3 °F 30.2 °F 75% 30.07 in 10.0 mi East 10.4 mph - N/A   Clear
1:35 AM 37.4 °F 30.3 °F 28.4 °F 70% 30.06 in 10.0 mi ESE 10.4 mph - N/A   Clear
1:55 AM 37.4 °F 30.8 °F 28.4 °F 70% 30.05 in 10.0 mi ESE 9.2 mph - N/A   Clear
2:15 AM 37.4 °F 30.8 °F 28.4 °F 70% 30.05 in 10.0 mi ESE 9.2 mph - N/A   Clear
2:35 AM 35.6 °F 28.6 °F 28.4 °F 75% 30.04 in 10.0 mi ESE 9.2 mph - N/A   Clear
2:55 AM 35.6 °F 28.6 °F 28.4 °F 75% 30.04 in 10.0 mi ESE 9.2 mph - N/A   Clear
3:15 AM 33.8 °F 27.0 °F 28.4 °F 81% 30.03 in 10.0 mi ESE 8.1 mph - N/A   Clear
3:35 AM 35.6 °F 29.2 °F 28.4 °F 75% 30.02 in 10.0 mi ESE 8.1 mph - N/A   Clear
3:55 AM 33.8 °F 25.8 °F 28.4 °F 81% 30.02 in 10.0 mi East 10.4 mph - N/A   Clear
4:15 AM 33.8 °F 25.8 °F 28.4 °F 81% 30.01 in 10.0 mi East 10.4 mph - N/A   Clear
4:35 AM 33.8 °F 25.8 °F 28.4 °F 81% 30.00 in 10.0 mi ESE 10.4 mph - N/A   Clear
4:55 AM 33.8 °F 26.4 °F 28.4 °F 81% 30.00 in 10.0 mi ESE 9.2 mph - N/A   Clear
5:15 AM 33.8 °F 25.8 °F 28.4 °F 81% 30.00 in 10.0 mi ESE 10.4 mph - N/A   Clear
6:15 AM 32.0 °F 23.6 °F 28.4 °F 87% 30.00 in 10.0 mi East 10.4 mph - N/A   Clear
6:35 AM 32.0 °F 23.6 °F 28.4 °F 87% 29.99 in 10.0 mi ESE 10.4 mph - N/A   Clear
7:15 AM 32.0 °F 24.2 °F 28.4 °F 87% 29.99 in 10.0 mi ESE 9.2 mph - N/A   Clear
7:35 AM 32.0 °F 24.2 °F 28.4 °F 87% 29.99 in 10.0 mi ESE 9.2 mph - N/A   Clear
7:55 AM 32.0 °F 24.2 °F 28.4 °F 87% 29.99 in 10.0 mi ESE 9.2 mph - N/A   Clear
8:15 AM 33.8 °F 27.7 °F 28.4 °F 81% 29.99 in 10.0 mi ESE 6.9 mph - N/A   Clear
8:35 AM 35.6 °F 29.2 °F 30.2 °F 81% 29.99 in 10.0 mi SE 8.1 mph - N/A   Clear
8:55 AM 37.4 °F 30.8 °F 30.2 °F 75% 29.99 in 10.0 mi SE 9.2 mph - N/A   Clear
9:15 AM 41.0 °F 35.2 °F 32.0 °F 70% 29.99 in 10.0 mi SE 9.2 mph - N/A   Clear
9:35 AM 42.8 °F 37.5 °F 32.0 °F 66% 29.99 in 10.0 mi SSE 9.2 mph - N/A   Clear
9:55 AM 46.4 °F 42.4 °F 32.0 °F 57% 29.98 in 10.0 mi SSE 8.1 mph - N/A   Clear
10:15 AM 48.2 °F - 32.0 °F 54% 29.98 in 10.0 mi South 10.4 mph - N/A   Clear
10:35 AM 50.0 °F - 32.0 °F 50% 29.97 in 10.0 mi SSW 10.4 mph - N/A   Clear
10:55 AM 51.8 °F - 32.0 °F 47% 29.97 in 10.0 mi South 10.4 mph - N/A   Clear
11:15 AM 53.6 °F - 32.0 °F 44% 29.96 in 10.0 mi South 11.5 mph - N/A   Clear
11:35 AM 55.4 °F - 32.0 °F 41% 29.95 in 10.0 mi South 13.8 mph - N/A   Clear
11:55 AM 55.4 °F - 32.0 °F 41% 29.94 in 10.0 mi SSW 13.8 mph 19.6 mph N/A   Clear
12:15 PM 59.0 °F - 32.0 °F 36% 29.92 in 10.0 mi South 13.8 mph 17.3 mph N/A   Clear
12:35 PM 60.8 °F - 30.2 °F 31% 29.91 in 10.0 mi South 19.6 mph 24.2 mph N/A   Clear
12:55 PM 62.6 °F - 30.2 °F 30% 29.89 in 10.0 mi South 18.4 mph - N/A   Clear
1:15 PM 62.6 °F - 28.4 °F 27% 29.87 in 10.0 mi South 21.9 mph 26.5 mph N/A   Clear
1:35 PM 64.4 °F - 28.4 °F 26% 29.86 in 10.0 mi South 19.6 mph 25.3 mph N/A   Clear
1:55 PM 66.2 °F - 28.4 °F 24% 29.85 in 10.0 mi South 20.7 mph 28.8 mph N/A   Clear
2:15 PM 68.0 °F - 26.6 °F 21% 29.82 in 10.0 mi SSW 25.3 mph 29.9 mph N/A   Clear
2:35 PM 69.8 °F - 26.6 °F 20% 29.82 in 10.0 mi SSW 24.2 mph 28.8 mph N/A   Clear
2:55 PM 71.6 °F - 24.8 °F 17% 29.80 in 10.0 mi SSW 21.9 mph 26.5 mph N/A   Clear
3:15 PM 71.6 °F - 23.0 °F 16% 29.79 in 10.0 mi SSW 21.9 mph 32.2 mph N/A   Clear
3:35 PM 71.6 °F - 23.0 °F 16% 29.78 in 10.0 mi SSW 23.0 mph 29.9 mph N/A   Clear
3:55 PM 71.6 °F - 23.0 °F 16% 29.77 in 10.0 mi SSW 25.3 mph 32.2 mph N/A   Clear
4:15 PM 71.6 °F - 21.2 °F 15% 29.76 in 10.0 mi SSW 21.9 mph - N/A   Clear
4:35 PM 71.6 °F - 21.2 °F 15% 29.75 in 10.0 mi South 23.0 mph - N/A   Clear
4:55 PM 71.6 °F - 21.2 °F 15% 29.74 in 10.0 mi South 25.3 mph 33.4 mph N/A   Clear
5:15 PM 71.6 °F - 21.2 °F 15% 29.74 in 10.0 mi South 21.9 mph 29.9 mph N/A   Clear
5:35 PM 69.8 °F - 21.2 °F 16% 29.73 in 10.0 mi South 21.9 mph 28.8 mph N/A   Clear
5:55 PM 69.8 °F - 24.8 °F 18% 29.73 in 10.0 mi South 19.6 mph 23.0 mph N/A   Clear
6:15 PM 68.0 °F - 24.8 °F 20% 29.72 in 10.0 mi South 18.4 mph 24.2 mph N/A   Clear
6:35 PM 64.4 °F - 24.8 °F 22% 29.73 in 10.0 mi South 18.4 mph - N/A   Clear
6:55 PM 64.4 °F - 26.6 °F 24% 29.73 in 10.0 mi South 18.4 mph - N/A   Clear
7:15 PM 62.6 °F - 26.6 °F 26% 29.73 in 10.0 mi South 17.3 mph - N/A   Clear
7:35 PM 62.6 °F - 26.6 °F 26% 29.73 in 10.0 mi South 19.6 mph - N/A   Clear
7:55 PM 60.8 °F - 26.6 °F 27% 29.73 in 10.0 mi South 19.6 mph 26.5 mph N/A   Clear
8:15 PM 60.8 °F - 26.6 °F 27% 29.72 in 10.0 mi South 23.0 mph 28.8 mph N/A   Clear
8:35 PM 60.8 °F - 26.6 °F 27% 29.72 in 10.0 mi South 23.0 mph 31.1 mph N/A   Clear
8:55 PM 60.8 °F - 24.8 °F 25% 29.72 in 10.0 mi South 25.3 mph 31.1 mph N/A   Clear
9:15 PM 60.8 °F - 24.8 °F 25% 29.72 in 10.0 mi South 25.3 mph 32.2 mph N/A   Clear
9:35 PM 59.0 °F - 24.8 °F 27% 29.73 in 10.0 mi South 23.0 mph - N/A   Clear
10:15 PM 57.2 °F - 26.6 °F 31% 29.74 in 10.0 mi South 19.6 mph 25.3 mph N/A   Clear
10:35 PM 57.2 °F - 26.6 °F 31% 29.74 in 10.0 mi South 18.4 mph - N/A   Clear
10:55 PM 57.2 °F - 28.4 °F 33% 29.73 in 10.0 mi South 19.6 mph - N/A   Clear
11:15 PM 57.2 °F - 28.4 °F 33% 29.73 in 10.0 mi South 19.6 mph 27.6 mph N/A   Clear
11:35 PM 55.4 °F - 28.4 °F 36% 29.72 in 10.0 mi South 17.3 mph - N/A   Clear
11:55 PM 53.6 °F - 30.2 °F 41% 29.72 in 10.0 mi SSE 13.8 mph - N/A   Clear